Time;durP1;ratioP1;P1;durP2;ratioP2;P2;SDS_P1;SDS_P2;PMS_P1;PMS_P2;Temp;Humidity;BMP_temperature;BMP_pressure;BME280_temperature;BME280_humidity;BME280_pressure;Samples;Min_cycle;Max_cycle;Signal;HPM_P1;HPM_P2
2021/03/15 00:02:04;;;;;;;4.63;1.65;;;16.70;52.90;;;;;;5101496;28;20028;-73
2021/03/15 00:04:31;;;;;;;4.15;1.40;;;16.90;52.70;;;;;;5101116;28;20425;-73
2021/03/15 00:06:57;;;;;;;4.63;1.40;;;16.70;52.90;;;;;;5102017;28;20373;-73
2021/03/15 00:09:24;;;;;;;3.38;1.67;;;16.50;54.00;;;;;;5101557;28;20089;-74
2021/03/15 00:11:52;;;;;;;6.88;2.10;;;16.50;55.10;;;;;;5101464;28;20461;-74
2021/03/15 00:14:20;;;;;;;6.78;1.65;;;16.60;54.10;;;;;;5101602;28;20035;-74
2021/03/15 00:16:47;;;;;;;9.80;3.50;;;16.60;53.60;;;;;;5100764;28;20020;-74
2021/03/15 00:19:13;;;;;;;3.05;1.45;;;16.60;54.20;;;;;;5103004;28;20024;-73
2021/03/15 00:21:40;;;;;;;5.70;1.50;;;16.50;55.10;;;;;;5106026;28;20538;-75
2021/03/15 00:24:07;;;;;;;1.65;1.30;;;16.60;54.50;;;;;;5089333;28;20028;-72
2021/03/15 00:26:34;;;;;;;6.72;1.98;;;16.50;54.70;;;;;;5100191;28;20058;-72
2021/03/15 00:29:01;;;;;;;3.88;1.83;;;16.40;56.00;;;;;;5106799;28;20024;-72
2021/03/15 00:31:27;;;;;;;2.50;1.80;;;16.30;56.10;;;;;;5104808;28;20019;-72
2021/03/15 00:33:54;;;;;;;4.10;2.83;;;16.10;56.80;;;;;;5102937;28;20016;-73
2021/03/15 00:36:20;;;;;;;5.65;5.00;;;15.90;56.80;;;;;;5099631;28;20033;-72
2021/03/15 00:38:47;;;;;;;13.05;9.07;;;15.80;57.40;;;;;;5105978;28;20429;-72
2021/03/15 00:41:14;;;;;;;35.13;21.90;;;15.60;57.10;;;;;;5105768;28;20033;-72
2021/03/15 00:43:40;;;;;;;6.25;4.82;;;15.60;58.10;;;;;;5105484;28;20429;-72
2021/03/15 00:46:07;;;;;;;4.80;2.22;;;15.60;58.70;;;;;;5105871;28;20028;-72
2021/03/15 00:48:33;;;;;;;4.97;2.30;;;15.40;58.20;;;;;;5100953;28;20023;-72
2021/03/15 00:50:59;;;;;;;6.03;3.40;;;15.20;59.30;;;;;;5105307;28;20024;-74
2021/03/15 00:53:28;;;;;;;6.25;3.63;;;15.30;59.90;;;;;;5104244;28;20327;-73
2021/03/15 00:55:55;;;;;;;3.33;2.22;;;15.10;59.10;;;;;;5102815;28;20036;-74
2021/03/15 00:58:21;;;;;;;3.83;2.22;;;15.10;59.60;;;;;;5098726;28;20020;-72
2021/03/15 01:00:49;;;;;;;4.32;2.13;;;14.90;59.60;;;;;;5097614;28;20031;-72
2021/03/15 01:03:15;;;;;;;10.32;2.15;;;14.70;60.70;;;;;;5100109;28;20020;-73
2021/03/15 01:05:45;;;;;;;4.95;3.75;;;14.50;62.20;;;;;;5102868;28;20019;-72
2021/03/15 01:08:13;;;;;;;4.80;2.47;;;14.60;61.00;;;;;;5105452;28;20031;-72
2021/03/15 01:10:41;;;;;;;2.08;1.88;;;14.70;60.40;;;;;;5104734;28;20039;-72
2021/03/15 01:13:08;;;;;;;3.38;3.08;;;14.60;60.00;;;;;;5094078;28;20535;-73
2021/03/15 01:15:36;;;;;;;5.22;2.88;;;14.70;60.40;;;;;;5100086;28;20107;-72
2021/03/15 01:18:03;;;;;;;7.22;3.33;;;14.50;60.80;;;;;;5090086;28;20020;-72
2021/03/15 01:20:30;;;;;;;6.07;3.85;;;14.30;62.20;;;;;;5097094;28;20055;-73
2021/03/15 01:22:57;;;;;;;5.60;2.53;;;14.20;62.60;;;;;;5096957;28;20112;-73
2021/03/15 01:25:37;;;;;;;7.57;6.20;;;14.20;60.90;;;;;;5097856;28;20070;-73
2021/03/15 01:28:06;;;;;;;14.00;9.57;;;14.10;62.70;;;;;;5096692;28;20028;-72
2021/03/15 01:30:34;;;;;;;18.23;13.35;;;13.90;64.40;;;;;;5103913;28;20085;-72
2021/03/15 01:33:01;;;;;;;8.95;4.50;;;13.90;63.70;;;;;;5103074;28;20450;-73
2021/03/15 01:35:27;;;;;;;4.22;3.15;;;13.90;63.50;;;;;;5102006;28;20480;-73
2021/03/15 01:37:54;;;;;;;7.30;3.38;;;13.80;64.50;;;;;;5102947;28;20480;-72
2021/03/15 01:40:22;;;;;;;3.08;2.75;;;13.70;64.00;;;;;;5098120;28;20154;-72
2021/03/15 01:42:49;;;;;;;6.90;5.05;;;13.70;65.80;;;;;;5101320;28;20039;-74
2021/03/15 01:45:15;;;;;;;12.05;10.63;;;13.70;64.40;;;;;;5099033;28;20353;-73
2021/03/15 01:47:44;;;;;;;7.68;4.28;;;13.70;64.30;;;;;;5100724;28;20345;-73
2021/03/15 01:50:12;;;;;;;3.25;2.42;;;13.60;66.00;;;;;;5100096;28;20349;-74
2021/03/15 01:52:40;;;;;;;5.68;2.63;;;13.60;65.30;;;;;;5102489;28;20032;-74
2021/03/15 01:55:10;;;;;;;2.78;1.77;;;13.60;66.00;;;;;;5099386;28;20089;-73
2021/03/15 01:57:37;;;;;;;3.28;2.35;;;13.60;64.80;;;;;;5095963;28;20403;-72
2021/03/15 02:00:10;;;;;;;6.07;2.08;;;13.60;64.60;;;;;;5098130;28;20032;-73
2021/03/15 02:02:40;;;;;;;3.92;2.10;;;13.50;65.80;;;;;;5097530;28;20335;-72
2021/03/15 02:05:09;;;;;;;5.53;2.85;;;13.50;65.80;;;;;;5101510;28;20063;-72
2021/03/15 02:07:35;;;;;;;3.80;2.35;;;13.60;64.90;;;;;;5097714;28;20366;-72
2021/03/15 02:10:03;;;;;;;5.60;3.63;;;13.70;64.20;;;;;;5099296;28;20024;-72
2021/03/15 02:12:54;;;;;;;3.35;2.83;;;13.70;64.30;;;;;;5102399;28;20032;-73
2021/03/15 02:15:36;;;;;;;2.10;1.90;;;13.80;64.60;;;;;;5098484;28;20909;-74
2021/03/15 02:18:26;;;;;;;2.38;1.88;;;13.80;65.00;;;;;;5097721;28;20044;-72
2021/03/15 02:21:26;;;;;;;3.30;3.00;;;13.60;64.60;;;;;;5091767;28;20119;-74
2021/03/15 02:24:13;;;;;;;2.15;1.77;;;13.60;62.30;;;;;;5093945;28;20031;-73
2021/03/15 02:27:16;;;;;;;3.97;2.55;;;13.80;64.70;;;;;;5098133;28;20024;-73
2021/03/15 02:30:04;;;;;;;4.05;2.17;;;13.60;63.90;;;;;;5101540;28;20025;-73
2021/03/15 02:32:51;;;;;;;2.78;1.85;;;13.70;62.60;;;;;;5097554;28;20035;-72
2021/03/15 02:35:24;;;;;;;4.70;2.22;;;13.70;64.10;;;;;;5096531;28;20393;-72
2021/03/15 02:38:11;;;;;;;5.25;2.05;;;13.60;62.90;;;;;;5097767;28;20028;-73
2021/03/15 02:40:47;;;;;;;2.53;2.30;;;13.60;66.40;;;;;;5098920;28;20170;-74
2021/03/15 02:43:42;;;;;;;4.03;2.55;;;13.40;66.30;;;;;;5102897;28;20041;-73
2021/03/15 02:46:15;;;;;;;2.80;1.90;;;13.40;65.60;;;;;;5088073;28;20040;-72
2021/03/15 02:48:42;;;;;;;3.35;2.00;;;13.40;65.90;;;;;;5101831;28;20024;-73
2021/03/15 02:51:09;;;;;;;2.67;1.50;;;13.40;65.20;;;;;;5095883;28;20467;-72
2021/03/15 02:53:39;;;;;;;2.22;1.98;;;13.80;66.50;;;;;;5100638;28;20142;-73
2021/03/15 02:56:35;;;;;;;2.70;2.33;;;13.70;66.10;;;;;;5088855;28;20043;-73
2021/03/15 02:59:03;;;;;;;1.80;1.70;;;13.50;67.10;;;;;;5097868;28;20385;-73
2021/03/15 03:01:31;;;;;;;1.95;1.80;;;13.40;68.40;;;;;;5104302;28;20056;-73
2021/03/15 03:03:58;;;;;;;1.52;1.42;;;13.40;67.80;;;;;;5102338;28;20036;-73
2021/03/15 03:06:29;;;;;;;1.77;1.67;;;13.40;67.90;;;;;;5098176;28;20454;-73
2021/03/15 03:08:58;;;;;;;3.13;2.08;;;13.40;67.80;;;;;;5101811;28;20094;-73
2021/03/15 03:11:27;;;;;;;4.20;2.10;;;13.60;68.00;;;;;;5101501;28;20035;-73
2021/03/15 03:13:55;;;;;;;1.95;1.70;;;13.50;68.20;;;;;;5102032;28;20365;-74
2021/03/15 03:16:28;;;;;;;2.80;2.55;;;13.40;69.10;;;;;;5102322;28;20027;-73
2021/03/15 03:18:56;;;;;;;1.23;1.10;;;13.40;69.80;;;;;;5100015;28;20456;-74
2021/03/15 03:21:24;;;;;;;1.00;1.00;;;13.90;67.90;;;;;;5091737;28;20024;-74
2021/03/15 03:23:54;;;;;;;3.42;1.10;;;14.20;67.60;;;;;;5093402;28;20028;-73
2021/03/15 03:26:28;;;;;;;1.25;1.25;;;14.10;66.50;;;;;;5098541;28;20024;-74
2021/03/15 03:28:56;;;;;;;1.13;1.10;;;13.90;66.60;;;;;;5099183;28;20350;-73
2021/03/15 03:31:25;;;;;;;1.38;1.20;;;13.70;68.80;;;;;;5107498;28;20019;-73
2021/03/15 03:33:52;;;;;;;0.98;0.98;;;13.90;66.80;;;;;;5107626;28;20472;-73
2021/03/15 03:36:19;;;;;;;1.23;1.13;;;13.80;65.90;;;;;;5104060;28;20588;-73
2021/03/15 03:38:46;;;;;;;1.20;1.20;;;13.20;68.10;;;;;;5098572;28;20099;-72
2021/03/15 03:41:12;;;;;;;1.40;1.30;;;12.90;69.10;;;;;;5106357;27;20032;-72
2021/03/15 03:43:39;;;;;;;1.73;1.40;;;12.80;69.20;;;;;;5096511;28;20059;-72
2021/03/15 03:46:07;;;;;;;1.80;1.48;;;12.50;69.60;;;;;;5116749;27;20036;-72
2021/03/15 03:48:37;;;;;;;1.23;1.20;;;12.10;70.40;;;;;;5106008;28;20027;-72
2021/03/15 03:51:04;;;;;;;1.42;1.42;;;11.80;73.30;;;;;;5096480;28;20484;-72
2021/03/15 03:53:58;;;;;;;1.40;1.30;;;11.80;72.60;;;;;;5098761;28;20034;-72
2021/03/15 03:56:31;;;;;;;2.85;1.25;;;11.70;74.30;;;;;;5103487;28;20121;-72
2021/03/15 03:58:59;;;;;;;1.52;1.42;;;11.70;73.10;;;;;;5102934;28;20023;-72
2021/03/15 04:01:37;;;;;;;1.20;1.20;;;11.80;72.50;;;;;;5101007;28;20035;-72
2021/03/15 04:04:08;;;;;;;1.52;1.42;;;11.70;74.40;;;;;;5104835;28;20024;-74
2021/03/15 04:06:36;;;;;;;1.80;1.67;;;11.70;73.40;;;;;;5102111;28;20066;-74
2021/03/15 04:09:19;;;;;;;1.27;1.23;;;11.90;72.50;;;;;;5105946;28;20024;-75
2021/03/15 04:11:50;;;;;;;1.55;1.45;;;11.80;70.90;;;;;;5106367;28;20119;-72
2021/03/15 04:14:21;;;;;;;1.40;1.30;;;11.90;70.20;;;;;;5104033;28;20504;-72
2021/03/15 04:16:49;;;;;;;1.30;1.20;;;11.80;69.30;;;;;;5094492;28;20059;-72
2021/03/15 04:19:23;;;;;;;2.47;1.60;;;12.00;67.30;;;;;;5101635;28;20499;-72
2021/03/15 04:21:51;;;;;;;1.70;1.60;;;11.90;67.40;;;;;;5099462;28;20024;-72
2021/03/15 04:24:20;;;;;;;6.90;1.88;;;11.80;68.60;;;;;;5105887;28;20031;-72
2021/03/15 04:29:34;;;;;;;3.50;1.83;;;11.40;69.00;;;;;;5104063;28;20031;-72
2021/03/15 04:32:02;;;;;;;6.70;2.10;;;11.20;69.80;;;;;;5096942;28;20032;-72
2021/03/15 04:34:34;;;;;;;3.53;1.77;;;11.30;68.70;;;;;;5096198;28;20353;-72
2021/03/15 04:37:02;;;;;;;4.43;2.13;;;11.20;68.70;;;;;;5100618;28;20371;-73
2021/03/15 04:39:31;;;;;;;7.35;2.35;;;11.10;69.40;;;;;;5100561;28;20020;-73
2021/03/15 04:42:01;;;;;;;1.67;1.58;;;11.10;68.20;;;;;;5098892;28;20034;-73
2021/03/15 04:44:29;;;;;;;5.70;2.22;;;11.10;68.80;;;;;;5102299;28;20356;-73
2021/03/15 04:46:56;;;;;;;2.60;2.28;;;11.30;68.10;;;;;;5104700;28;20116;-73
2021/03/15 04:49:24;;;;;;;4.90;1.95;;;11.30;68.70;;;;;;5099935;28;20031;-73
2021/03/15 04:51:51;;;;;;;3.83;2.30;;;11.20;67.70;;;;;;5102797;28;20106;-74
2021/03/15 04:54:18;;;;;;;4.35;2.03;;;11.10;70.30;;;;;;5101403;28;20461;-73
2021/03/15 04:56:45;;;;;;;3.80;2.05;;;10.90;71.20;;;;;;5103690;28;20454;-73
2021/03/15 04:59:13;;;;;;;6.60;2.03;;;10.90;71.60;;;;;;5099758;28;20028;-74
2021/03/15 05:01:41;;;;;;;6.60;2.33;;;10.80;71.50;;;;;;5103881;28;20028;-74
2021/03/15 05:04:11;;;;;;;3.25;1.80;;;10.70;71.90;;;;;;5101749;28;20043;-74
2021/03/15 05:06:41;;;;;;;6.35;2.40;;;10.90;70.30;;;;;;5106357;28;20035;-73
2021/03/15 05:09:09;;;;;;;7.03;2.25;;;10.80;72.20;;;;;;5103331;28;20338;-73
2021/03/15 05:11:37;;;;;;;5.57;1.80;;;10.90;70.30;;;;;;5100784;28;20456;-74
2021/03/15 05:14:05;;;;;;;4.28;2.05;;;10.80;70.90;;;;;;5101476;28;20027;-72
2021/03/15 05:16:38;;;;;;;3.05;1.75;;;10.90;70.20;;;;;;5105915;28;20403;-72
2021/03/15 05:19:07;;;;;;;3.97;1.75;;;10.80;71.10;;;;;;5102861;28;20036;-72
2021/03/15 05:21:34;;;;;;;2.22;1.95;;;11.00;69.20;;;;;;5103300;28;20496;-72
2021/03/15 05:24:02;;;;;;;3.35;1.92;;;11.00;69.20;;;;;;5104413;28;20024;-72
2021/03/15 05:26:31;;;;;;;5.13;1.92;;;10.90;70.60;;;;;;5103773;28;20020;-73
2021/03/15 05:29:01;;;;;;;8.38;2.15;;;10.80;69.70;;;;;;5102839;28;20016;-73
2021/03/15 05:31:30;;;;;;;5.22;2.03;;;10.90;69.00;;;;;;5097169;28;20074;-73
2021/03/15 05:33:58;;;;;;;5.82;2.47;;;11.00;69.00;;;;;;5102919;28;20023;-73
2021/03/15 05:36:25;;;;;;;4.28;1.63;;;11.00;68.70;;;;;;5103832;28;20043;-72
2021/03/15 05:38:52;;;;;;;5.47;1.95;;;10.80;69.60;;;;;;5104203;28;20020;-72
2021/03/15 05:41:23;;;;;;;6.15;2.67;;;10.90;69.80;;;;;;5099923;28;20032;-73
2021/03/15 05:44:10;;;;;;;5.55;2.33;;;11.00;70.00;;;;;;5098785;28;20029;-73
2021/03/15 05:46:59;;;;;;;7.18;2.55;;;10.90;70.00;;;;;;5093470;28;20478;-72
2021/03/15 05:50:03;;;;;;;8.38;3.22;;;11.00;69.20;;;;;;5104251;28;20023;-72
2021/03/15 05:52:41;;;;;;;15.27;3.47;;;11.00;68.90;;;;;;5096952;28;20069;-72
2021/03/15 05:55:38;;;;;;;6.30;2.22;;;10.80;68.70;;;;;;5098081;28;20410;-73
2021/03/15 05:58:41;;;;;;;9.68;2.63;;;10.70;70.00;;;;;;5103527;28;20028;-72
2021/03/15 06:01:37;;;;;;;6.50;2.47;;;10.80;69.60;;;;;;5105293;28;20038;-74
2021/03/15 06:04:31;;;;;;;5.60;2.70;;;10.80;70.10;;;;;;5075517;28;20675;-75
2021/03/15 06:07:01;;;;;;;10.23;2.25;;;10.70;69.20;;;;;;5100319;28;20361;-72
2021/03/15 06:09:34;;;;;;;5.03;2.50;;;10.80;68.80;;;;;;5100205;28;20055;-72
2021/03/15 06:12:01;;;;;;;;;;;10.70;69.20;;;;;;5100859;28;20089;-72
2021/03/15 06:14:29;;;;;;;5.00;2.05;;;10.70;69.30;;;;;;5103269;28;19912;-74
2021/03/15 06:16:57;;;;;;;12.85;3.33;;;10.60;69.70;;;;;;5102612;28;20039;-73
2021/03/15 06:19:25;;;;;;;7.05;2.30;;;10.70;69.10;;;;;;5100215;28;20024;-72
2021/03/15 06:21:55;;;;;;;10.77;3.42;;;10.80;68.40;;;;;;5102112;28;20323;-72
2021/03/15 06:24:21;;;;;;;8.73;2.42;;;10.70;68.20;;;;;;5100645;28;20047;-73
2021/03/15 06:26:49;;;;;;;13.07;3.70;;;10.60;69.40;;;;;;5102707;28;20023;-73
2021/03/15 06:29:16;;;;;;;10.60;2.90;;;10.70;69.30;;;;;;5099988;28;20054;-73
2021/03/15 06:31:49;;;;;;;15.05;3.00;;;10.60;69.00;;;;;;5096026;28;20529;-74
2021/03/15 06:34:16;;;;;;;10.50;2.80;;;10.60;68.70;;;;;;5102176;28;20059;-73
2021/03/15 06:36:44;;;;;;;10.77;3.15;;;10.70;68.90;;;;;;5103449;28;20020;-73
2021/03/15 06:39:11;;;;;;;15.07;4.88;;;10.60;69.10;;;;;;5100346;28;20047;-73
2021/03/15 06:41:41;;;;;;;17.27;3.22;;;10.80;68.20;;;;;;5103261;28;20493;-73
2021/03/15 06:44:09;;;;;;;15.95;3.30;;;10.90;67.60;;;;;;5102267;28;20086;-73
2021/03/15 06:46:36;;;;;;;14.20;4.78;;;10.80;67.60;;;;;;5104345;28;20051;-73
2021/03/15 06:49:03;;;;;;;13.35;3.42;;;10.80;67.00;;;;;;5101619;28;20418;-73
2021/03/15 06:51:29;;;;;;;8.85;3.00;;;10.80;68.10;;;;;;5104337;28;20024;-73
2021/03/15 06:53:56;;;;;;;14.55;4.07;;;10.80;67.20;;;;;;5102959;28;20035;-73
2021/03/15 06:56:24;;;;;;;15.40;2.72;;;10.60;67.50;;;;;;5101178;28;20081;-73
2021/03/15 06:58:54;;;;;;;11.60;3.15;;;10.50;68.70;;;;;;5102553;28;20092;-73
2021/03/15 07:01:22;;;;;;;14.00;3.35;;;10.70;67.60;;;;;;5103037;28;20077;-73
2021/03/15 07:03:50;;;;;;;10.18;2.92;;;10.50;68.40;;;;;;5107346;28;20016;-73
2021/03/15 07:06:20;;;;;;;9.60;2.65;;;10.50;67.60;;;;;;5109817;28;20031;-73
2021/03/15 07:08:49;;;;;;;8.43;2.58;;;10.60;67.10;;;;;;5108536;28;20458;-73
2021/03/15 07:11:33;;;;;;;4.85;2.05;;;10.60;67.10;;;;;;5102125;28;20555;-74
2021/03/15 07:14:00;;;;;;;12.68;3.17;;;10.60;66.70;;;;;;5097914;28;20370;-73
2021/03/15 07:16:29;;;;;;;7.95;2.55;;;10.70;66.50;;;;;;5094575;28;20486;-73
2021/03/15 07:19:00;;;;;;;13.45;4.22;;;10.70;65.40;;;;;;5094696;28;20411;-73
2021/03/15 07:21:40;;;;;;;8.80;2.53;;;10.60;65.70;;;;;;5100750;28;20027;-73
2021/03/15 07:24:11;;;;;;;7.07;3.10;;;10.40;66.20;;;;;;5106963;28;20021;-73
2021/03/15 07:26:45;;;;;;;10.43;3.25;;;10.60;66.40;;;;;;5105975;28;20050;-73
2021/03/15 07:29:14;;;;;;;12.02;3.13;;;10.80;65.30;;;;;;5104270;28;20024;-75
2021/03/15 07:31:46;;;;;;;16.35;2.97;;;10.60;66.20;;;;;;5099857;28;20057;-73
2021/03/15 07:34:22;;;;;;;14.98;4.57;;;10.40;67.50;;;;;;5103961;28;20024;-73
2021/03/15 07:36:54;;;;;;;10.98;3.00;;;10.30;67.40;;;;;;5106815;28;20106;-73
2021/03/15 07:39:22;;;;;;;10.65;3.15;;;10.40;68.00;;;;;;5109601;28;20416;-73
2021/03/15 07:41:51;;;;;;;12.35;3.50;;;10.40;67.40;;;;;;5108511;28;20511;-74
2021/03/15 07:44:21;;;;;;;13.90;4.78;;;10.40;66.40;;;;;;5110064;28;20030;-74
2021/03/15 07:46:49;;;;;;;11.68;2.50;;;10.60;65.90;;;;;;5101659;28;20020;-74
2021/03/15 07:49:38;;;;;;;13.70;3.50;;;10.40;66.30;;;;;;5107498;28;20365;-74
2021/03/15 07:52:06;;;;;;;7.18;2.33;;;10.40;65.10;;;;;;5102164;28;20039;-74
2021/03/15 07:54:35;;;;;;;11.45;3.53;;;10.30;65.80;;;;;;5104851;28;20062;-74
2021/03/15 07:57:19;;;;;;;12.25;3.13;;;10.50;64.70;;;;;;5107599;28;20028;-75
2021/03/15 07:59:48;;;;;;;9.45;3.10;;;10.40;65.20;;;;;;5109681;28;20024;-73
2021/03/15 08:02:17;;;;;;;7.43;2.65;;;10.40;64.70;;;;;;5104611;28;20533;-74
2021/03/15 08:04:44;;;;;;;10.75;2.95;;;10.30;64.70;;;;;;5106595;28;20034;-74
2021/03/15 08:07:13;;;;;;;10.50;3.25;;;10.40;64.70;;;;;;5101833;28;20116;-74
2021/03/15 08:09:47;;;;;;;10.20;3.03;;;10.50;64.40;;;;;;5103823;27;20070;-74
2021/03/15 08:12:16;;;;;;;19.73;5.20;;;10.50;63.90;;;;;;5106879;28;20035;-74
2021/03/15 08:14:47;;;;;;;17.20;3.05;;;10.50;64.10;;;;;;5107410;28;20354;-73
2021/03/15 08:17:21;;;;;;;11.90;3.50;;;10.30;64.70;;;;;;5106383;28;20042;-73
2021/03/15 08:19:48;;;;;;;21.70;4.15;;;10.20;65.10;;;;;;5110716;28;20024;-74
2021/03/15 08:22:28;;;;;;;10.85;3.20;;;10.40;64.40;;;;;;5112677;28;20028;-74
2021/03/15 08:24:58;;;;;;;12.27;3.05;;;10.30;63.80;;;;;;5107524;28;20353;-74
2021/03/15 08:27:30;;;;;;;14.80;4.07;;;10.30;64.00;;;;;;5105811;28;20357;-73
2021/03/15 08:30:01;;;;;;;18.00;4.38;;;10.20;64.70;;;;;;5099472;28;20024;-74
2021/03/15 08:32:30;;;;;;;15.60;4.07;;;10.20;64.30;;;;;;5107995;28;20030;-74
2021/03/15 08:34:57;;;;;;;13.27;3.67;;;10.00;64.80;;;;;;5106918;28;20069;-74
2021/03/15 08:37:53;;;;;;;17.08;3.63;;;10.10;64.60;;;;;;5100631;28;20020;-74
2021/03/15 08:40:41;;;;;;;12.18;3.35;;;10.00;65.40;;;;;;5097552;28;20023;-74
2021/03/15 08:43:21;;;;;;;15.73;4.80;;;10.00;65.40;;;;;;5101916;28;20020;-73
2021/03/15 08:45:55;;;;;;;18.75;4.28;;;10.00;64.70;;;;;;5104551;28;20092;-74
2021/03/15 08:48:41;;;;;;;16.98;4.10;;;10.10;64.40;;;;;;5106091;28;20015;-74
2021/03/15 08:51:12;;;;;;;14.90;3.88;;;10.00;64.80;;;;;;5105138;28;20098;-74
2021/03/15 08:53:39;;;;;;;17.23;5.00;;;10.00;64.70;;;;;;5104542;28;20204;-74
2021/03/15 08:56:12;;;;;;;10.45;3.08;;;10.00;64.70;;;;;;5101212;28;20024;-73
2021/03/15 08:58:38;;;;;;;15.75;4.15;;;9.90;64.80;;;;;;5100568;28;20032;-74
2021/03/15 09:01:08;;;;;;;16.88;3.80;;;9.90;64.70;;;;;;5102770;28;20085;-74
2021/03/15 09:04:01;;;;;;;9.27;3.10;;;10.00;64.10;;;;;;5102788;28;20035;-74
2021/03/15 09:06:35;;;;;;;11.98;3.20;;;10.00;64.30;;;;;;5100698;28;20034;-74
2021/03/15 09:09:24;;;;;;;12.50;2.72;;;9.90;64.20;;;;;;5105427;28;20442;-73
2021/03/15 09:11:53;;;;;;;10.52;3.20;;;10.10;63.90;;;;;;5103600;28;20032;-74
2021/03/15 09:14:25;;;;;;;12.70;4.72;;;10.00;62.60;;;;;;5098628;28;20039;-74
2021/03/15 09:16:56;;;;;;;11.63;2.85;;;10.10;62.80;;;;;;5104892;28;20020;-73
2021/03/15 09:19:34;;;;;;;20.27;6.82;;;10.10;62.90;;;;;;5104000;28;20073;-74
2021/03/15 09:22:01;;;;;;;14.43;3.67;;;10.30;61.60;;;;;;5102603;28;20086;-74
2021/03/15 09:24:35;;;;;;;12.45;2.88;;;10.20;62.10;;;;;;5104156;28;20023;-74
2021/03/15 09:27:07;;;;;;;14.65;3.22;;;10.10;62.80;;;;;;5103679;28;20376;-74
2021/03/15 09:29:34;;;;;;;9.73;3.03;;;10.00;62.70;;;;;;5104041;28;20044;-73
2021/03/15 09:32:10;;;;;;;16.02;3.60;;;10.40;62.70;;;;;;5103117;28;20028;-74
2021/03/15 09:34:37;;;;;;;14.63;3.35;;;10.30;63.30;;;;;;5104213;28;20113;-74
2021/03/15 09:37:05;;;;;;;9.25;3.28;;;10.30;62.90;;;;;;5102216;28;20042;-74
2021/03/15 09:39:32;;;;;;;12.98;3.13;;;10.30;62.80;;;;;;5103838;28;20024;-74
2021/03/15 09:42:00;;;;;;;12.52;3.45;;;10.10;62.90;;;;;;5104320;28;20354;-74
2021/03/15 09:44:32;;;;;;;21.13;4.30;;;10.00;63.10;;;;;;5104437;28;20034;-74
2021/03/15 09:46:59;;;;;;;16.30;2.97;;;10.10;63.20;;;;;;5099052;28;20035;-74
2021/03/15 09:49:39;;;;;;;12.55;3.15;;;10.00;62.80;;;;;;5105122;28;20441;-76
2021/03/15 09:52:31;;;;;;;15.13;3.92;;;9.80;63.60;;;;;;5106066;28;20036;-75
2021/03/15 09:54:58;;;;;;;15.18;3.05;;;10.00;62.70;;;;;;5101822;28;20044;-74
2021/03/15 09:57:25;;;;;;;9.95;2.60;;;10.10;61.80;;;;;;5103597;28;20040;-73
2021/03/15 10:00:04;;;;;;;7.53;2.70;;;10.10;62.10;;;;;;5102871;28;20063;-74
2021/03/15 10:02:30;;;;;;;10.52;2.85;;;9.80;63.00;;;;;;5102630;28;20043;-74
2021/03/15 10:04:57;;;;;;;14.00;2.88;;;9.90;63.20;;;;;;5103544;28;20099;-74
2021/03/15 10:07:23;;;;;;;11.02;2.78;;;9.70;63.70;;;;;;5105001;28;20024;-74
2021/03/15 10:09:50;;;;;;;7.25;2.92;;;9.70;64.20;;;;;;5105220;28;20027;-74
2021/03/15 10:12:20;;;;;;;10.25;3.03;;;9.70;63.90;;;;;;5104132;28;20032;-75
2021/03/15 10:14:57;;;;;;;6.75;2.38;;;9.70;64.30;;;;;;5103075;28;20019;-74
2021/03/15 10:17:23;;;;;;;11.35;3.58;;;10.00;63.10;;;;;;5102520;28;20032;-74
2021/03/15 10:19:50;;;;;;;8.90;2.63;;;9.90;63.50;;;;;;5104417;28;20384;-74
2021/03/15 10:22:20;;;;;;;6.88;2.85;;;9.90;63.20;;;;;;5102941;28;20036;-74
2021/03/15 10:24:50;;;;;;;11.30;2.67;;;9.90;62.60;;;;;;5102418;28;20024;-74
2021/03/15 10:27:25;;;;;;;9.98;3.75;;;10.10;60.90;;;;;;5103131;28;20627;-74
2021/03/15 10:29:56;;;;;;;8.88;2.58;;;10.00;61.40;;;;;;5103278;28;20935;-74
2021/03/15 10:32:26;;;;;;;7.00;2.22;;;9.80;62.10;;;;;;5101968;28;20117;-74
2021/03/15 10:35:04;;;;;;;9.43;2.30;;;9.80;62.20;;;;;;5102518;28;20027;-74
2021/03/15 10:37:37;;;;;;;6.50;2.20;;;9.60;62.80;;;;;;5103732;28;20036;-74
2021/03/15 10:40:04;;;;;;;;;;;9.80;62.10;;;;;;5101297;28;20078;-74
2021/03/15 10:42:31;;;;;;;8.20;2.83;;;9.70;63.00;;;;;;5103569;28;19957;-74
2021/03/15 10:45:00;;;;;;;9.20;3.08;;;9.70;62.10;;;;;;5103400;28;20221;-74
2021/03/15 10:47:32;;;;;;;5.55;2.50;;;9.70;62.60;;;;;;5103253;28;20071;-74
2021/03/15 10:50:00;;;;;;;14.90;2.83;;;9.70;62.90;;;;;;5103149;28;20038;-74
2021/03/15 10:52:36;;;;;;;11.13;2.53;;;9.80;62.00;;;;;;5103402;28;20106;-74
2021/03/15 10:55:12;;;;;;;13.70;2.88;;;9.90;61.80;;;;;;5104287;28;20045;-74
2021/03/15 10:57:58;;;;;;;6.15;2.30;;;10.00;62.40;;;;;;5101237;28;20027;-75
2021/03/15 11:00:27;;;;;;;12.52;2.88;;;10.20;61.80;;;;;;5103629;28;20041;-74
2021/03/15 11:02:53;;;;;;;7.00;2.70;;;10.20;62.20;;;;;;5104561;28;20454;-74
2021/03/15 11:05:20;;;;;;;6.28;2.40;;;9.90;63.10;;;;;;5103321;28;20024;-74
2021/03/15 11:07:47;;;;;;;9.15;2.42;;;9.80;63.60;;;;;;5103511;28;20038;-74
2021/03/15 11:10:16;;;;;;;6.68;2.25;;;9.80;62.80;;;;;;5102842;28;20030;-74
2021/03/15 11:12:56;;;;;;;8.02;3.03;;;9.80;63.00;;;;;;5102686;28;20020;-74
2021/03/15 11:15:39;;;;;;;8.68;2.13;;;9.60;63.20;;;;;;5103553;28;20020;-74
2021/03/15 11:18:23;;;;;;;8.07;2.65;;;9.70;63.60;;;;;;5103111;28;20020;-74
2021/03/15 11:20:57;;;;;;;9.32;2.28;;;9.50;64.20;;;;;;5100023;28;20036;-75
2021/03/15 11:23:41;;;;;;;9.40;2.60;;;9.30;64.80;;;;;;5103318;28;20068;-74
2021/03/15 11:26:15;;;;;;;7.95;2.40;;;9.20;64.80;;;;;;5101646;28;20047;-74
2021/03/15 11:28:47;;;;;;;9.27;3.80;;;9.30;64.80;;;;;;5102583;28;20081;-74
2021/03/15 11:31:23;;;;;;;9.40;4.10;;;9.20;64.80;;;;;;5104719;28;20024;-75
2021/03/15 11:33:54;;;;;;;8.88;2.42;;;9.20;64.80;;;;;;5101503;28;20024;-74
2021/03/15 11:36:22;;;;;;;10.57;2.53;;;9.30;64.10;;;;;;5100481;28;20032;-74
2021/03/15 11:38:59;;;;;;;10.15;2.00;;;9.30;64.30;;;;;;5102851;28;20023;-75
2021/03/15 11:41:27;;;;;;;6.30;3.08;;;9.40;63.90;;;;;;5101870;28;20488;-76
2021/03/15 11:43:55;;;;;;;9.85;2.85;;;9.40;63.90;;;;;;5103016;28;20024;-75
2021/03/15 11:46:21;;;;;;;9.50;2.42;;;9.30;63.60;;;;;;5102773;28;20028;-74
2021/03/15 11:48:48;;;;;;;9.02;3.30;;;9.30;63.70;;;;;;5096674;28;20058;-74
2021/03/15 11:51:17;;;;;;;4.28;2.50;;;9.40;63.70;;;;;;5107202;28;20043;-74
2021/03/15 11:53:45;;;;;;;10.43;3.95;;;9.30;63.20;;;;;;5106990;28;20480;-74
2021/03/15 11:56:14;;;;;;;15.90;3.45;;;9.30;63.60;;;;;;5106834;28;20032;-74
2021/03/15 11:58:41;;;;;;;10.75;3.00;;;9.60;63.20;;;;;;5106382;28;20495;-74
2021/03/15 12:01:08;;;;;;;16.40;3.15;;;9.60;63.40;;;;;;5103163;28;20111;-74
2021/03/15 12:03:35;;;;;;;15.25;3.47;;;9.40;64.40;;;;;;5096231;28;20057;-74
2021/03/15 12:06:03;;;;;;;11.05;3.88;;;9.70;63.60;;;;;;5104181;28;20102;-75
2021/03/15 12:08:30;;;;;;;7.47;3.38;;;9.70;63.20;;;;;;5102687;28;20028;-74
2021/03/15 12:10:57;;;;;;;14.63;3.97;;;9.80;62.90;;;;;;5102857;28;20032;-74
2021/03/15 12:13:24;;;;;;;10.52;2.80;;;9.80;62.50;;;;;;5108060;28;20570;-74
2021/03/15 12:15:51;;;;;;;14.43;2.72;;;9.80;62.80;;;;;;5115223;28;20024;-74
2021/03/15 12:18:18;;;;;;;11.70;3.63;;;9.80;62.10;;;;;;5110403;28;20439;-74
2021/03/15 12:20:45;;;;;;;18.98;5.15;;;9.80;62.80;;;;;;5105641;28;20024;-75
2021/03/15 12:23:11;;;;;;;6.82;3.10;;;9.80;62.50;;;;;;5107345;28;20016;-74
2021/03/15 12:25:39;;;;;;;13.48;3.30;;;9.60;63.40;;;;;;5105157;28;20026;-74
2021/03/15 12:28:08;;;;;;;18.70;4.25;;;9.50;63.80;;;;;;5105029;28;20020;-74
2021/03/15 12:30:36;;;;;;;15.23;4.72;;;9.50;64.20;;;;;;5104230;28;20024;-74
2021/03/15 12:33:04;;;;;;;12.85;3.95;;;9.50;64.00;;;;;;5104179;28;20331;-74
2021/03/15 12:35:30;;;;;;;11.45;4.72;;;9.60;64.30;;;;;;5104634;28;20023;-74
2021/03/15 12:37:57;;;;;;;11.20;3.70;;;9.50;64.20;;;;;;5105109;28;20027;-74
2021/03/15 12:40:24;;;;;;;12.63;3.25;;;9.50;63.50;;;;;;5105235;28;20028;-74
2021/03/15 12:42:50;;;;;;;16.08;4.00;;;9.50;63.70;;;;;;5104099;28;20024;-74
2021/03/15 12:45:17;;;;;;;14.10;3.67;;;9.50;63.30;;;;;;5106580;28;20020;-74
2021/03/15 12:47:44;;;;;;;10.80;3.05;;;9.60;63.00;;;;;;5104484;28;20016;-74
2021/03/15 12:50:10;;;;;;;11.63;4.28;;;9.40;63.20;;;;;;5105036;28;20327;-74
2021/03/15 12:52:37;;;;;;;10.52;3.22;;;9.40;63.40;;;;;;5103150;28;20449;-74
2021/03/15 12:55:04;;;;;;;11.20;3.03;;;9.40;63.70;;;;;;5102384;28;20031;-74
2021/03/15 12:57:30;;;;;;;11.13;3.92;;;9.60;62.10;;;;;;5105681;28;20038;-73
2021/03/15 12:59:57;;;;;;;21.17;3.85;;;9.90;61.60;;;;;;5104955;28;20450;-74
2021/03/15 13:02:23;;;;;;;10.20;3.80;;;10.10;60.70;;;;;;5103082;28;20496;-74
2021/03/15 13:04:50;;;;;;;17.83;3.20;;;10.10;60.90;;;;;;5104805;28;20025;-74
2021/03/15 13:07:16;;;;;;;12.77;3.75;;;10.00;61.40;;;;;;5105778;28;20035;-73
2021/03/15 13:09:43;;;;;;;13.27;3.30;;;10.00;61.70;;;;;;5104530;28;20024;-73